sensor_id;sensor_type;location;lat;lon;timestamp;temperature;humidity
55004;DHT22;40900;52.710;6.438;2023-04-24T00:00:57;10.60;99.90
55004;DHT22;40900;52.710;6.438;2023-04-24T00:03:24;10.60;99.90
55004;DHT22;40900;52.710;6.438;2023-04-24T00:05:50;10.70;99.90
55004;DHT22;40900;52.710;6.438;2023-04-24T00:08:16;10.60;99.90
55004;DHT22;40900;52.710;6.438;2023-04-24T00:10:42;10.60;99.90
55004;DHT22;40900;52.710;6.438;2023-04-24T00:13:08;10.60;99.90
55004;DHT22;40900;52.710;6.438;2023-04-24T00:15:34;10.50;99.90
55004;DHT22;40900;52.710;6.438;2023-04-24T00:17:59;10.50;99.90
55004;DHT22;40900;52.710;6.438;2023-04-24T00:20:27;10.50;99.90
55004;DHT22;40900;52.710;6.438;2023-04-24T00:22:55;10.50;99.90
55004;DHT22;40900;52.710;6.438;2023-04-24T00:25:21;10.60;99.90
55004;DHT22;40900;52.710;6.438;2023-04-24T00:27:46;10.50;99.90
55004;DHT22;40900;52.710;6.438;2023-04-24T00:30:12;10.50;99.90
55004;DHT22;40900;52.710;6.438;2023-04-24T00:32:38;10.50;99.90
55004;DHT22;40900;52.710;6.438;2023-04-24T00:35:04;10.50;99.90
55004;DHT22;40900;52.710;6.438;2023-04-24T00:37:34;10.50;99.90
55004;DHT22;40900;52.710;6.438;2023-04-24T00:40:00;10.40;99.90
55004;DHT22;40900;52.710;6.438;2023-04-24T00:42:25;10.40;99.90
55004;DHT22;40900;52.710;6.438;2023-04-24T00:44:52;10.30;99.90
55004;DHT22;40900;52.710;6.438;2023-04-24T00:47:19;10.30;99.90
55004;DHT22;40900;52.710;6.438;2023-04-24T00:49:45;10.30;99.90
55004;DHT22;40900;52.710;6.438;2023-04-24T00:52:11;10.30;99.90
55004;DHT22;40900;52.710;6.438;2023-04-24T00:54:38;10.30;99.90
55004;DHT22;40900;52.710;6.438;2023-04-24T00:57:04;10.30;99.90
55004;DHT22;40900;52.710;6.438;2023-04-24T00:59:30;10.30;99.90
55004;DHT22;40900;52.710;6.438;2023-04-24T01:01:57;10.30;99.90
55004;DHT22;40900;52.710;6.438;2023-04-24T01:04:24;10.30;99.90
55004;DHT22;40900;52.710;6.438;2023-04-24T01:06:50;10.30;99.90
55004;DHT22;40900;52.710;6.438;2023-04-24T01:09:16;10.30;99.90
55004;DHT22;40900;52.710;6.438;2023-04-24T01:11:43;10.30;99.90
55004;DHT22;40900;52.710;6.438;2023-04-24T01:14:09;10.20;99.90
55004;DHT22;40900;52.710;6.438;2023-04-24T01:16:35;10.10;99.90
55004;DHT22;40900;52.710;6.438;2023-04-24T01:19:01;10.10;99.90
55004;DHT22;40900;52.710;6.438;2023-04-24T01:21:30;10.00;99.90
55004;DHT22;40900;52.710;6.438;2023-04-24T01:23:59;10.00;99.90
55004;DHT22;40900;52.710;6.438;2023-04-24T01:26:24;9.90;99.90
55004;DHT22;40900;52.710;6.438;2023-04-24T01:28:51;9.90;99.90
55004;DHT22;40900;52.710;6.438;2023-04-24T01:31:16;9.80;99.90
55004;DHT22;40900;52.710;6.438;2023-04-24T01:33:43;9.80;99.90
55004;DHT22;40900;52.710;6.438;2023-04-24T01:36:10;9.80;99.90
55004;DHT22;40900;52.710;6.438;2023-04-24T01:38:36;9.70;99.90
55004;DHT22;40900;52.710;6.438;2023-04-24T01:41:02;9.70;99.90
55004;DHT22;40900;52.710;6.438;2023-04-24T01:43:29;9.60;99.90
55004;DHT22;40900;52.710;6.438;2023-04-24T01:45:54;9.60;99.90
55004;DHT22;40900;52.710;6.438;2023-04-24T01:48:20;9.60;99.90
55004;DHT22;40900;52.710;6.438;2023-04-24T01:50:46;9.70;99.90
55004;DHT22;40900;52.710;6.438;2023-04-24T01:53:12;9.60;99.90
55004;DHT22;40900;52.710;6.438;2023-04-24T01:55:37;9.60;99.90
55004;DHT22;40900;52.710;6.438;2023-04-24T01:58:03;9.60;99.90
55004;DHT22;40900;52.710;6.438;2023-04-24T02:00:29;9.60;99.90
55004;DHT22;40900;52.710;6.438;2023-04-24T02:02:55;9.60;99.90
55004;DHT22;40900;52.710;6.438;2023-04-24T02:05:21;9.50;99.90
55004;DHT22;40900;52.710;6.438;2023-04-24T02:07:47;9.50;99.90
55004;DHT22;40900;52.710;6.438;2023-04-24T02:10:12;9.50;99.90
55004;DHT22;40900;52.710;6.438;2023-04-24T02:12:38;9.50;99.90
55004;DHT22;40900;52.710;6.438;2023-04-24T02:15:04;9.50;99.90
55004;DHT22;40900;52.710;6.438;2023-04-24T02:17:31;9.50;99.90
55004;DHT22;40900;52.710;6.438;2023-04-24T02:19:56;9.50;99.90
55004;DHT22;40900;52.710;6.438;2023-04-24T02:22:22;9.50;99.90
55004;DHT22;40900;52.710;6.438;2023-04-24T02:24:48;9.50;99.90
55004;DHT22;40900;52.710;6.438;2023-04-24T02:27:14;9.50;99.90
55004;DHT22;40900;52.710;6.438;2023-04-24T02:29:40;9.40;99.90
55004;DHT22;40900;52.710;6.438;2023-04-24T02:32:05;9.50;99.90
55004;DHT22;40900;52.710;6.438;2023-04-24T02:34:31;9.50;99.90
55004;DHT22;40900;52.710;6.438;2023-04-24T02:36:57;9.50;99.90
55004;DHT22;40900;52.710;6.438;2023-04-24T02:39:23;9.50;99.90
55004;DHT22;40900;52.710;6.438;2023-04-24T02:41:48;9.50;99.90
55004;DHT22;40900;52.710;6.438;2023-04-24T02:44:14;9.50;99.90
55004;DHT22;40900;52.710;6.438;2023-04-24T02:46:41;9.40;99.90
55004;DHT22;40900;52.710;6.438;2023-04-24T02:49:07;9.50;99.90
55004;DHT22;40900;52.710;6.438;2023-04-24T02:51:33;9.50;99.90
55004;DHT22;40900;52.710;6.438;2023-04-24T02:53:59;9.40;99.90
55004;DHT22;40900;52.710;6.438;2023-04-24T02:56:24;9.50;99.90
55004;DHT22;40900;52.710;6.438;2023-04-24T02:58:50;9.50;99.90
55004;DHT22;40900;52.710;6.438;2023-04-24T03:01:16;9.50;99.90
55004;DHT22;40900;52.710;6.438;2023-04-24T03:03:43;9.50;99.90
55004;DHT22;40900;52.710;6.438;2023-04-24T03:06:09;9.60;99.90
55004;DHT22;40900;52.710;6.438;2023-04-24T03:08:35;9.50;99.90
55004;DHT22;40900;52.710;6.438;2023-04-24T03:11:00;9.50;99.90
55004;DHT22;40900;52.710;6.438;2023-04-24T03:13:26;9.50;99.90
55004;DHT22;40900;52.710;6.438;2023-04-24T03:15:52;9.50;99.90
55004;DHT22;40900;52.710;6.438;2023-04-24T03:18:19;9.50;99.90
55004;DHT22;40900;52.710;6.438;2023-04-24T03:20:48;9.50;99.90
55004;DHT22;40900;52.710;6.438;2023-04-24T03:23:13;9.30;99.90
55004;DHT22;40900;52.710;6.438;2023-04-24T03:25:39;9.30;99.90
55004;DHT22;40900;52.710;6.438;2023-04-24T03:28:06;9.30;99.90
55004;DHT22;40900;52.710;6.438;2023-04-24T03:30:31;9.30;99.90
55004;DHT22;40900;52.710;6.438;2023-04-24T03:32:57;9.30;99.90
55004;DHT22;40900;52.710;6.438;2023-04-24T03:35:23;9.30;99.90
55004;DHT22;40900;52.710;6.438;2023-04-24T03:37:48;9.20;99.90
55004;DHT22;40900;52.710;6.438;2023-04-24T03:40:14;9.20;99.90
55004;DHT22;40900;52.710;6.438;2023-04-24T03:42:40;9.20;99.90
55004;DHT22;40900;52.710;6.438;2023-04-24T03:45:06;9.20;99.90
55004;DHT22;40900;52.710;6.438;2023-04-24T03:47:32;9.20;99.90
55004;DHT22;40900;52.710;6.438;2023-04-24T03:49:58;9.30;99.90
55004;DHT22;40900;52.710;6.438;2023-04-24T03:52:23;9.30;99.90
55004;DHT22;40900;52.710;6.438;2023-04-24T03:54:49;9.30;99.90
55004;DHT22;40900;52.710;6.438;2023-04-24T03:57:15;9.30;99.90
55004;DHT22;40900;52.710;6.438;2023-04-24T03:59:40;9.30;99.90
55004;DHT22;40900;52.710;6.438;2023-04-24T04:02:06;9.30;99.90
55004;DHT22;40900;52.710;6.438;2023-04-24T04:04:32;9.30;99.90
55004;DHT22;40900;52.710;6.438;2023-04-24T04:06:58;9.30;99.90
55004;DHT22;40900;52.710;6.438;2023-04-24T04:09:27;9.30;99.90
55004;DHT22;40900;52.710;6.438;2023-04-24T04:11:52;9.20;99.90
55004;DHT22;40900;52.710;6.438;2023-04-24T04:14:18;9.20;99.90
55004;DHT22;40900;52.710;6.438;2023-04-24T04:16:44;9.20;99.90
55004;DHT22;40900;52.710;6.438;2023-04-24T04:19:10;9.20;99.90
55004;DHT22;40900;52.710;6.438;2023-04-24T04:21:36;9.20;99.90
55004;DHT22;40900;52.710;6.438;2023-04-24T04:24:02;9.20;99.90
55004;DHT22;40900;52.710;6.438;2023-04-24T04:26:27;9.20;99.90
55004;DHT22;40900;52.710;6.438;2023-04-24T04:28:53;9.10;99.90
55004;DHT22;40900;52.710;6.438;2023-04-24T04:31:21;9.00;99.90
55004;DHT22;40900;52.710;6.438;2023-04-24T04:33:48;9.00;99.90
55004;DHT22;40900;52.710;6.438;2023-04-24T04:36:14;9.00;99.90
55004;DHT22;40900;52.710;6.438;2023-04-24T04:38:40;9.00;99.90
55004;DHT22;40900;52.710;6.438;2023-04-24T04:41:06;8.90;99.90
55004;DHT22;40900;52.710;6.438;2023-04-24T04:43:32;8.90;99.90
55004;DHT22;40900;52.710;6.438;2023-04-24T04:45:59;8.90;99.90
55004;DHT22;40900;52.710;6.438;2023-04-24T04:48:27;8.90;99.90
55004;DHT22;40900;52.710;6.438;2023-04-24T04:50:52;8.90;99.90
55004;DHT22;40900;52.710;6.438;2023-04-24T04:53:18;8.90;99.90
55004;DHT22;40900;52.710;6.438;2023-04-24T04:55:44;9.00;99.90
55004;DHT22;40900;52.710;6.438;2023-04-24T04:58:09;9.00;99.90
55004;DHT22;40900;52.710;6.438;2023-04-24T05:00:35;9.00;99.90
55004;DHT22;40900;52.710;6.438;2023-04-24T05:03:02;9.00;99.90
55004;DHT22;40900;52.710;6.438;2023-04-24T05:05:28;9.00;99.90
55004;DHT22;40900;52.710;6.438;2023-04-24T05:07:54;9.00;99.90
55004;DHT22;40900;52.710;6.438;2023-04-24T05:10:20;9.00;99.90
55004;DHT22;40900;52.710;6.438;2023-04-24T05:12:46;9.00;99.90
55004;DHT22;40900;52.710;6.438;2023-04-24T05:15:11;9.00;99.90
55004;DHT22;40900;52.710;6.438;2023-04-24T05:17:37;8.90;99.90
55004;DHT22;40900;52.710;6.438;2023-04-24T05:20:05;8.90;99.90
55004;DHT22;40900;52.710;6.438;2023-04-24T05:22:31;9.00;99.90
55004;DHT22;40900;52.710;6.438;2023-04-24T05:24:57;9.00;99.90
55004;DHT22;40900;52.710;6.438;2023-04-24T05:27:23;9.10;99.90
55004;DHT22;40900;52.710;6.438;2023-04-24T05:29:49;9.10;99.90
55004;DHT22;40900;52.710;6.438;2023-04-24T05:32:15;9.00;99.90
55004;DHT22;40900;52.710;6.438;2023-04-24T05:34:41;9.10;99.90
55004;DHT22;40900;52.710;6.438;2023-04-24T05:37:06;9.10;99.90
55004;DHT22;40900;52.710;6.438;2023-04-24T05:39:35;9.20;99.90
55004;DHT22;40900;52.710;6.438;2023-04-24T05:42:01;9.20;99.90
55004;DHT22;40900;52.710;6.438;2023-04-24T05:44:27;9.20;99.90
55004;DHT22;40900;52.710;6.438;2023-04-24T05:46:53;9.30;99.90
55004;DHT22;40900;52.710;6.438;2023-04-24T05:49:20;9.40;99.90
55004;DHT22;40900;52.710;6.438;2023-04-24T05:51:46;9.40;99.90
55004;DHT22;40900;52.710;6.438;2023-04-24T05:54:11;9.40;99.90
55004;DHT22;40900;52.710;6.438;2023-04-24T05:56:38;9.40;99.90
55004;DHT22;40900;52.710;6.438;2023-04-24T05:59:04;9.40;99.90
55004;DHT22;40900;52.710;6.438;2023-04-24T06:01:29;9.50;99.90
55004;DHT22;40900;52.710;6.438;2023-04-24T06:03:56;9.50;99.90
55004;DHT22;40900;52.710;6.438;2023-04-24T06:06:23;9.50;99.90
55004;DHT22;40900;52.710;6.438;2023-04-24T06:08:49;9.70;99.90
55004;DHT22;40900;52.710;6.438;2023-04-24T06:11:15;9.70;99.90
55004;DHT22;40900;52.710;6.438;2023-04-24T06:13:41;9.60;99.90
55004;DHT22;40900;52.710;6.438;2023-04-24T06:16:07;9.70;99.90
55004;DHT22;40900;52.710;6.438;2023-04-24T06:18:32;9.70;99.90
55004;DHT22;40900;52.710;6.438;2023-04-24T06:20:58;9.60;99.90
55004;DHT22;40900;52.710;6.438;2023-04-24T06:23:24;9.60;99.90
55004;DHT22;40900;52.710;6.438;2023-04-24T06:25:51;9.60;99.90
55004;DHT22;40900;52.710;6.438;2023-04-24T06:28:17;9.60;99.90
55004;DHT22;40900;52.710;6.438;2023-04-24T06:30:42;9.60;99.90
55004;DHT22;40900;52.710;6.438;2023-04-24T06:33:09;9.60;99.90
55004;DHT22;40900;52.710;6.438;2023-04-24T06:35:35;9.60;99.90
55004;DHT22;40900;52.710;6.438;2023-04-24T06:38:01;9.60;99.90
55004;DHT22;40900;52.710;6.438;2023-04-24T06:40:27;9.60;99.90
55004;DHT22;40900;52.710;6.438;2023-04-24T06:42:52;9.60;99.90
55004;DHT22;40900;52.710;6.438;2023-04-24T06:45:18;9.60;99.90
55004;DHT22;40900;52.710;6.438;2023-04-24T06:47:44;9.60;99.90
55004;DHT22;40900;52.710;6.438;2023-04-24T06:50:10;9.50;99.90
55004;DHT22;40900;52.710;6.438;2023-04-24T06:52:36;9.60;99.90
55004;DHT22;40900;52.710;6.438;2023-04-24T06:55:03;9.50;99.90
55004;DHT22;40900;52.710;6.438;2023-04-24T06:57:29;9.50;99.90
55004;DHT22;40900;52.710;6.438;2023-04-24T06:59:55;9.50;99.90
55004;DHT22;40900;52.710;6.438;2023-04-24T07:02:21;9.50;99.90
55004;DHT22;40900;52.710;6.438;2023-04-24T07:04:47;9.60;99.90
55004;DHT22;40900;52.710;6.438;2023-04-24T07:07:13;9.60;99.90
55004;DHT22;40900;52.710;6.438;2023-04-24T07:09:42;9.50;99.90
55004;DHT22;40900;52.710;6.438;2023-04-24T07:12:09;9.50;99.90
55004;DHT22;40900;52.710;6.438;2023-04-24T07:14:39;9.50;99.90
55004;DHT22;40900;52.710;6.438;2023-04-24T07:17:05;9.60;99.90
55004;DHT22;40900;52.710;6.438;2023-04-24T07:19:33;9.70;99.90
55004;DHT22;40900;52.710;6.438;2023-04-24T07:21:59;9.70;99.90
55004;DHT22;40900;52.710;6.438;2023-04-24T07:24:25;9.60;99.90
55004;DHT22;40900;52.710;6.438;2023-04-24T07:26:52;9.70;99.90
55004;DHT22;40900;52.710;6.438;2023-04-24T07:29:18;9.70;99.90
55004;DHT22;40900;52.710;6.438;2023-04-24T07:31:44;9.70;99.90
55004;DHT22;40900;52.710;6.438;2023-04-24T07:34:10;9.70;99.90
55004;DHT22;40900;52.710;6.438;2023-04-24T07:36:36;9.70;99.90
55004;DHT22;40900;52.710;6.438;2023-04-24T07:39:04;9.60;99.90
55004;DHT22;40900;52.710;6.438;2023-04-24T07:41:30;9.60;99.90
55004;DHT22;40900;52.710;6.438;2023-04-24T07:43:56;9.60;99.90
55004;DHT22;40900;52.710;6.438;2023-04-24T07:46:21;9.70;99.90
55004;DHT22;40900;52.710;6.438;2023-04-24T07:48:48;9.70;99.90
55004;DHT22;40900;52.710;6.438;2023-04-24T07:51:15;9.60;99.90
55004;DHT22;40900;52.710;6.438;2023-04-24T07:53:41;9.60;99.90
55004;DHT22;40900;52.710;6.438;2023-04-24T07:56:07;9.60;99.90
55004;DHT22;40900;52.710;6.438;2023-04-24T07:58:33;9.60;99.90
55004;DHT22;40900;52.710;6.438;2023-04-24T08:00:59;9.60;99.90
55004;DHT22;40900;52.710;6.438;2023-04-24T08:03:25;9.60;99.90
55004;DHT22;40900;52.710;6.438;2023-04-24T08:05:50;9.60;99.90
55004;DHT22;40900;52.710;6.438;2023-04-24T08:08:16;9.70;99.90
55004;DHT22;40900;52.710;6.438;2023-04-24T08:10:42;9.80;99.90
55004;DHT22;40900;52.710;6.438;2023-04-24T08:13:08;9.70;99.90
55004;DHT22;40900;52.710;6.438;2023-04-24T08:15:34;9.70;99.90
55004;DHT22;40900;52.710;6.438;2023-04-24T08:18:00;9.70;99.90
55004;DHT22;40900;52.710;6.438;2023-04-24T08:20:26;9.70;99.90
55004;DHT22;40900;52.710;6.438;2023-04-24T08:22:52;9.70;99.90
55004;DHT22;40900;52.710;6.438;2023-04-24T08:25:18;9.70;99.90
55004;DHT22;40900;52.710;6.438;2023-04-24T08:27:44;9.80;99.90
55004;DHT22;40900;52.710;6.438;2023-04-24T08:30:10;9.70;99.90
55004;DHT22;40900;52.710;6.438;2023-04-24T08:32:36;9.70;99.90
55004;DHT22;40900;52.710;6.438;2023-04-24T08:35:03;9.70;99.90
55004;DHT22;40900;52.710;6.438;2023-04-24T08:37:29;9.60;99.90
55004;DHT22;40900;52.710;6.438;2023-04-24T08:39:54;9.60;99.90
55004;DHT22;40900;52.710;6.438;2023-04-24T08:42:21;9.60;99.90
55004;DHT22;40900;52.710;6.438;2023-04-24T08:44:48;9.60;99.90
55004;DHT22;40900;52.710;6.438;2023-04-24T08:47:15;9.60;99.90
55004;DHT22;40900;52.710;6.438;2023-04-24T08:49:41;9.50;99.90
55004;DHT22;40900;52.710;6.438;2023-04-24T08:52:08;9.40;99.90
55004;DHT22;40900;52.710;6.438;2023-04-24T08:54:35;9.40;99.90
55004;DHT22;40900;52.710;6.438;2023-04-24T08:57:02;9.50;99.90
55004;DHT22;40900;52.710;6.438;2023-04-24T08:59:29;9.40;99.90
55004;DHT22;40900;52.710;6.438;2023-04-24T09:01:56;9.40;99.90
55004;DHT22;40900;52.710;6.438;2023-04-24T09:04:23;9.30;99.90
55004;DHT22;40900;52.710;6.438;2023-04-24T09:06:56;9.30;99.90
55004;DHT22;40900;52.710;6.438;2023-04-24T09:09:24;9.30;99.90
55004;DHT22;40900;52.710;6.438;2023-04-24T09:11:51;9.40;99.90
55004;DHT22;40900;52.710;6.438;2023-04-24T09:14:19;9.30;99.90
55004;DHT22;40900;52.710;6.438;2023-04-24T09:16:45;9.30;99.90
55004;DHT22;40900;52.710;6.438;2023-04-24T09:19:11;9.40;99.90
55004;DHT22;40900;52.710;6.438;2023-04-24T09:21:37;9.40;99.90
55004;DHT22;40900;52.710;6.438;2023-04-24T09:24:08;9.40;99.90
55004;DHT22;40900;52.710;6.438;2023-04-24T09:26:39;9.40;99.90
55004;DHT22;40900;52.710;6.438;2023-04-24T09:29:05;9.40;99.90
55004;DHT22;40900;52.710;6.438;2023-04-24T09:31:31;9.40;99.90
55004;DHT22;40900;52.710;6.438;2023-04-24T09:33:58;9.40;99.90
55004;DHT22;40900;52.710;6.438;2023-04-24T09:36:34;9.40;99.90
55004;DHT22;40900;52.710;6.438;2023-04-24T09:39:04;9.40;99.90
55004;DHT22;40900;52.710;6.438;2023-04-24T09:41:32;9.40;99.90
55004;DHT22;40900;52.710;6.438;2023-04-24T09:44:14;9.40;99.90
55004;DHT22;40900;52.710;6.438;2023-04-24T09:46:45;9.40;99.90
55004;DHT22;40900;52.710;6.438;2023-04-24T09:49:15;9.60;99.90
55004;DHT22;40900;52.710;6.438;2023-04-24T09:51:42;9.50;99.90
55004;DHT22;40900;52.710;6.438;2023-04-24T09:54:18;9.70;99.90
55004;DHT22;40900;52.710;6.438;2023-04-24T09:56:47;9.70;99.90
55004;DHT22;40900;52.710;6.438;2023-04-24T09:59:15;9.80;99.90
55004;DHT22;40900;52.710;6.438;2023-04-24T10:01:41;9.90;99.90
55004;DHT22;40900;52.710;6.438;2023-04-24T10:04:21;9.90;99.90
55004;DHT22;40900;52.710;6.438;2023-04-24T10:06:52;10.00;99.90
55004;DHT22;40900;52.710;6.438;2023-04-24T10:09:19;10.00;99.90
55004;DHT22;40900;52.710;6.438;2023-04-24T10:11:50;10.00;99.90
55004;DHT22;40900;52.710;6.438;2023-04-24T10:14:17;10.00;99.90
55004;DHT22;40900;52.710;6.438;2023-04-24T10:16:44;9.90;99.90
55004;DHT22;40900;52.710;6.438;2023-04-24T10:19:13;9.80;99.90
55004;DHT22;40900;52.710;6.438;2023-04-24T10:21:40;9.70;99.90
55004;DHT22;40900;52.710;6.438;2023-04-24T10:24:12;9.50;99.90
55004;DHT22;40900;52.710;6.438;2023-04-24T10:26:38;9.40;99.90
55004;DHT22;40900;52.710;6.438;2023-04-24T10:29:06;9.40;99.90
55004;DHT22;40900;52.710;6.438;2023-04-24T10:31:36;9.30;99.90
55004;DHT22;40900;52.710;6.438;2023-04-24T10:34:04;9.30;99.90
55004;DHT22;40900;52.710;6.438;2023-04-24T10:36:31;9.30;99.90
55004;DHT22;40900;52.710;6.438;2023-04-24T10:39:01;9.30;99.90
55004;DHT22;40900;52.710;6.438;2023-04-24T10:41:27;9.30;99.90
55004;DHT22;40900;52.710;6.438;2023-04-24T10:44:15;9.30;99.90
55004;DHT22;40900;52.710;6.438;2023-04-24T10:46:47;9.30;99.90
55004;DHT22;40900;52.710;6.438;2023-04-24T10:49:28;9.40;99.90
55004;DHT22;40900;52.710;6.438;2023-04-24T10:52:00;9.50;99.90
55004;DHT22;40900;52.710;6.438;2023-04-24T10:54:44;9.40;99.90
55004;DHT22;40900;52.710;6.438;2023-04-24T11:00:12;9.40;99.90
55004;DHT22;40900;52.710;6.438;2023-04-24T11:02:39;9.40;99.90
55004;DHT22;40900;52.710;6.438;2023-04-24T11:05:09;9.50;99.90
55004;DHT22;40900;52.710;6.438;2023-04-24T11:08:11;9.60;99.90
55004;DHT22;40900;52.710;6.438;2023-04-24T11:10:47;9.80;99.90
55004;DHT22;40900;52.710;6.438;2023-04-24T11:13:22;9.90;99.90
55004;DHT22;40900;52.710;6.438;2023-04-24T11:16:13;10.00;99.90
55004;DHT22;40900;52.710;6.438;2023-04-24T11:18:42;10.10;99.90
55004;DHT22;40900;52.710;6.438;2023-04-24T11:21:17;10.30;99.90
55004;DHT22;40900;52.710;6.438;2023-04-24T11:23:43;10.30;99.90
55004;DHT22;40900;52.710;6.438;2023-04-24T11:26:11;10.30;99.90
55004;DHT22;40900;52.710;6.438;2023-04-24T11:28:47;10.20;99.90
55004;DHT22;40900;52.710;6.438;2023-04-24T11:31:39;10.30;99.90
55004;DHT22;40900;52.710;6.438;2023-04-24T11:34:13;10.10;99.90
55004;DHT22;40900;52.710;6.438;2023-04-24T11:36:42;10.00;99.90
55004;DHT22;40900;52.710;6.438;2023-04-24T11:39:08;10.00;99.90
55004;DHT22;40900;52.710;6.438;2023-04-24T11:41:35;9.90;99.90
55004;DHT22;40900;52.710;6.438;2023-04-24T11:44:03;9.90;99.90
55004;DHT22;40900;52.710;6.438;2023-04-24T11:46:31;9.90;99.90
55004;DHT22;40900;52.710;6.438;2023-04-24T11:48:58;9.90;99.90
55004;DHT22;40900;52.710;6.438;2023-04-24T11:51:24;10.00;99.90
55004;DHT22;40900;52.710;6.438;2023-04-24T11:53:53;9.90;99.90
55004;DHT22;40900;52.710;6.438;2023-04-24T11:56:21;9.80;99.90
55004;DHT22;40900;52.710;6.438;2023-04-24T11:58:47;9.80;99.90
55004;DHT22;40900;52.710;6.438;2023-04-24T12:01:14;9.70;99.90
55004;DHT22;40900;52.710;6.438;2023-04-24T12:03:39;9.70;99.90
55004;DHT22;40900;52.710;6.438;2023-04-24T12:06:10;9.70;99.90
55004;DHT22;40900;52.710;6.438;2023-04-24T12:08:37;9.80;99.90
55004;DHT22;40900;52.710;6.438;2023-04-24T12:11:04;9.90;99.90
55004;DHT22;40900;52.710;6.438;2023-04-24T12:13:30;9.90;99.90
55004;DHT22;40900;52.710;6.438;2023-04-24T12:16:00;9.80;99.90
55004;DHT22;40900;52.710;6.438;2023-04-24T12:18:27;9.80;99.90
55004;DHT22;40900;52.710;6.438;2023-04-24T12:20:52;9.70;99.90
55004;DHT22;40900;52.710;6.438;2023-04-24T12:23:34;9.80;99.90
55004;DHT22;40900;52.710;6.438;2023-04-24T12:26:04;9.80;99.90
55004;DHT22;40900;52.710;6.438;2023-04-24T12:28:37;9.90;99.90
55004;DHT22;40900;52.710;6.438;2023-04-24T12:31:04;10.00;99.90
55004;DHT22;40900;52.710;6.438;2023-04-24T12:33:33;10.00;99.90
55004;DHT22;40900;52.710;6.438;2023-04-24T12:35:59;9.90;99.90
55004;DHT22;40900;52.710;6.438;2023-04-24T12:38:27;9.80;99.90
55004;DHT22;40900;52.710;6.438;2023-04-24T12:41:17;9.60;99.90
55004;DHT22;40900;52.710;6.438;2023-04-24T12:43:52;9.70;99.90
55004;DHT22;40900;52.710;6.438;2023-04-24T12:46:17;9.60;99.90
55004;DHT22;40900;52.710;6.438;2023-04-24T12:48:43;9.70;99.90
55004;DHT22;40900;52.710;6.438;2023-04-24T12:51:09;9.80;99.90
55004;DHT22;40900;52.710;6.438;2023-04-24T12:53:35;9.80;99.90
55004;DHT22;40900;52.710;6.438;2023-04-24T12:56:00;9.70;99.90
55004;DHT22;40900;52.710;6.438;2023-04-24T12:58:26;9.70;99.90
55004;DHT22;40900;52.710;6.438;2023-04-24T13:00:52;9.80;99.90
55004;DHT22;40900;52.710;6.438;2023-04-24T13:03:18;9.70;99.90
55004;DHT22;40900;52.710;6.438;2023-04-24T13:05:45;9.80;99.90
55004;DHT22;40900;52.710;6.438;2023-04-24T13:08:11;9.80;99.90
55004;DHT22;40900;52.710;6.438;2023-04-24T13:10:38;9.80;99.90
55004;DHT22;40900;52.710;6.438;2023-04-24T13:13:05;9.80;99.90
55004;DHT22;40900;52.710;6.438;2023-04-24T13:15:30;9.80;99.90
55004;DHT22;40900;52.710;6.438;2023-04-24T13:17:56;9.70;99.90
55004;DHT22;40900;52.710;6.438;2023-04-24T13:20:22;9.50;99.90
55004;DHT22;40900;52.710;6.438;2023-04-24T13:22:47;9.40;99.90
55004;DHT22;40900;52.710;6.438;2023-04-24T13:25:13;9.50;99.90
55004;DHT22;40900;52.710;6.438;2023-04-24T13:27:42;9.50;99.90
55004;DHT22;40900;52.710;6.438;2023-04-24T13:30:08;9.60;99.90
55004;DHT22;40900;52.710;6.438;2023-04-24T13:32:34;9.60;99.90
55004;DHT22;40900;52.710;6.438;2023-04-24T13:35:00;9.60;99.90
55004;DHT22;40900;52.710;6.438;2023-04-24T13:37:26;9.50;99.90
55004;DHT22;40900;52.710;6.438;2023-04-24T13:39:52;9.50;99.90
55004;DHT22;40900;52.710;6.438;2023-04-24T13:42:17;9.50;99.90
55004;DHT22;40900;52.710;6.438;2023-04-24T13:44:44;9.60;99.90
55004;DHT22;40900;52.710;6.438;2023-04-24T13:47:09;9.60;99.90
55004;DHT22;40900;52.710;6.438;2023-04-24T13:49:35;9.60;99.90
55004;DHT22;40900;52.710;6.438;2023-04-24T13:52:02;9.70;99.90
55004;DHT22;40900;52.710;6.438;2023-04-24T13:54:27;9.70;99.90
55004;DHT22;40900;52.710;6.438;2023-04-24T13:56:55;9.70;99.90
55004;DHT22;40900;52.710;6.438;2023-04-24T13:59:21;9.60;99.90
55004;DHT22;40900;52.710;6.438;2023-04-24T14:01:47;9.50;99.90
55004;DHT22;40900;52.710;6.438;2023-04-24T14:04:13;9.40;99.90
55004;DHT22;40900;52.710;6.438;2023-04-24T14:06:39;9.30;99.90
55004;DHT22;40900;52.710;6.438;2023-04-24T14:09:05;9.20;99.90
55004;DHT22;40900;52.710;6.438;2023-04-24T14:11:33;9.20;99.90
55004;DHT22;40900;52.710;6.438;2023-04-24T14:13:59;9.20;99.90
55004;DHT22;40900;52.710;6.438;2023-04-24T14:16:25;9.10;99.90
55004;DHT22;40900;52.710;6.438;2023-04-24T14:18:50;9.10;99.90
55004;DHT22;40900;52.710;6.438;2023-04-24T14:21:16;9.20;99.90
55004;DHT22;40900;52.710;6.438;2023-04-24T14:23:42;9.20;99.90
55004;DHT22;40900;52.710;6.438;2023-04-24T14:26:07;9.30;99.90
55004;DHT22;40900;52.710;6.438;2023-04-24T14:28:33;9.20;99.90
55004;DHT22;40900;52.710;6.438;2023-04-24T14:30:59;9.20;99.90
55004;DHT22;40900;52.710;6.438;2023-04-24T14:33:25;9.20;99.90
55004;DHT22;40900;52.710;6.438;2023-04-24T14:35:50;9.20;99.90
55004;DHT22;40900;52.710;6.438;2023-04-24T14:38:16;9.20;99.90
55004;DHT22;40900;52.710;6.438;2023-04-24T14:40:42;9.20;99.90
55004;DHT22;40900;52.710;6.438;2023-04-24T14:43:07;9.20;99.90
55004;DHT22;40900;52.710;6.438;2023-04-24T14:45:33;9.20;99.90
55004;DHT22;40900;52.710;6.438;2023-04-24T14:47:59;9.20;99.90
55004;DHT22;40900;52.710;6.438;2023-04-24T14:50:25;9.30;99.90
55004;DHT22;40900;52.710;6.438;2023-04-24T14:52:54;9.40;99.90
55004;DHT22;40900;52.710;6.438;2023-04-24T14:55:23;9.50;99.90
55004;DHT22;40900;52.710;6.438;2023-04-24T14:57:48;9.40;99.90
55004;DHT22;40900;52.710;6.438;2023-04-24T15:00:14;9.50;99.90
55004;DHT22;40900;52.710;6.438;2023-04-24T15:02:42;9.50;99.90
55004;DHT22;40900;52.710;6.438;2023-04-24T15:05:10;9.40;99.90
55004;DHT22;40900;52.710;6.438;2023-04-24T15:07:35;9.40;99.90
55004;DHT22;40900;52.710;6.438;2023-04-24T15:10:02;9.40;99.90
55004;DHT22;40900;52.710;6.438;2023-04-24T15:12:28;9.40;99.90
55004;DHT22;40900;52.710;6.438;2023-04-24T15:14:54;9.50;99.90
55004;DHT22;40900;52.710;6.438;2023-04-24T15:17:20;9.70;99.90
55004;DHT22;40900;52.710;6.438;2023-04-24T15:19:46;9.60;99.90
55004;DHT22;40900;52.710;6.438;2023-04-24T15:22:11;9.60;99.90
55004;DHT22;40900;52.710;6.438;2023-04-24T15:24:37;9.60;99.90
55004;DHT22;40900;52.710;6.438;2023-04-24T15:27:03;9.50;99.90
55004;DHT22;40900;52.710;6.438;2023-04-24T15:29:29;9.40;99.90
55004;DHT22;40900;52.710;6.438;2023-04-24T15:31:54;9.30;99.90
55004;DHT22;40900;52.710;6.438;2023-04-24T15:34:20;9.30;99.90
55004;DHT22;40900;52.710;6.438;2023-04-24T15:36:46;9.40;99.90
55004;DHT22;40900;52.710;6.438;2023-04-24T15:39:12;9.40;99.90
55004;DHT22;40900;52.710;6.438;2023-04-24T15:41:37;9.50;99.90
55004;DHT22;40900;52.710;6.438;2023-04-24T15:44:03;9.50;99.90
55004;DHT22;40900;52.710;6.438;2023-04-24T15:46:29;9.50;99.90